createdAt,value
2022-11-09T00:01:44.057Z,98001.28
2022-11-09T00:04:13.374Z,97997.66
2022-11-09T00:06:41.420Z,97995.13
2022-11-09T00:09:10.511Z,98010.09
2022-11-09T00:11:38.856Z,98000.28
2022-11-09T00:14:14.410Z,98011.56
2022-11-09T00:16:42.407Z,97998.97
2022-11-09T00:19:10.423Z,98006.22
2022-11-09T00:21:42.203Z,97999.34
2022-11-09T00:24:10.216Z,98003.69
2022-11-09T00:26:38.159Z,98008.97
2022-11-09T00:29:06.257Z,98011.69
2022-11-09T00:31:34.367Z,98010.75
2022-11-09T00:34:02.393Z,98009.25
2022-11-09T00:36:30.839Z,98005.25
2022-11-09T00:39:01.046Z,98009.75
2022-11-09T00:41:29.354Z,97998.75
2022-11-09T00:43:57.378Z,98000.91
2022-11-09T00:46:28.119Z,97996.19
2022-11-09T00:48:56.816Z,98000.56
2022-11-09T00:51:25.108Z,97997.91
2022-11-09T00:53:57.370Z,98001.00
2022-11-09T00:56:27.110Z,97998.97
2022-11-09T00:58:56.260Z,97998.16
2022-11-09T01:01:24.484Z,97998.06
2022-11-09T01:03:52.652Z,98001.50
2022-11-09T01:06:21.319Z,98004.13
2022-11-09T01:08:49.561Z,97997.66
2022-11-09T01:11:18.849Z,97999.97
2022-11-09T01:13:48.154Z,97998.44
2022-11-09T01:16:17.370Z,98005.94
2022-11-09T01:18:47.985Z,98006.38
2022-11-09T01:21:17.399Z,98016.22
2022-11-09T01:23:45.337Z,98018.34
2022-11-09T01:26:14.196Z,98028.97
2022-11-09T01:28:42.467Z,98031.56
2022-11-09T01:31:17.204Z,98044.31
2022-11-09T01:33:45.234Z,98039.25
2022-11-09T01:36:14.058Z,98043.16
2022-11-09T01:38:42.077Z,98043.75
2022-11-09T01:41:12.306Z,98059.88
2022-11-09T01:43:40.314Z,98059.69
2022-11-09T01:46:15.526Z,98060.50
2022-11-09T01:48:47.693Z,98049.72
2022-11-09T01:51:17.401Z,98042.81
2022-11-09T01:53:48.414Z,98039.16
2022-11-09T01:56:18.294Z,98045.94
2022-11-09T01:58:51.458Z,98043.91
2022-11-09T02:01:21.760Z,98045.75
2022-11-09T02:03:54.561Z,98052.41
2022-11-09T02:06:26.864Z,98037.63
2022-11-09T02:09:02.200Z,98042.09
2022-11-09T02:11:32.259Z,98049.28
2022-11-09T02:14:19.075Z,98060.34
2022-11-09T02:16:54.676Z,98049.97
2022-11-09T02:19:22.710Z,98059.13
2022-11-09T02:21:54.890Z,98049.84
2022-11-09T02:24:26.282Z,98053.00
2022-11-09T02:26:55.026Z,98039.41
2022-11-09T02:29:25.030Z,98047.56
2022-11-09T02:31:56.178Z,98038.91
2022-11-09T02:34:25.593Z,98053.63
2022-11-09T02:36:57.344Z,98058.28
2022-11-09T02:39:26.762Z,98064.84
2022-11-09T02:41:57.037Z,98069.97
2022-11-09T02:44:31.039Z,98067.31
2022-11-09T02:46:59.151Z,98071.69
2022-11-09T02:49:29.449Z,98075.47
2022-11-09T02:51:58.827Z,98070.25
2022-11-09T02:54:26.858Z,98064.13
2022-11-09T02:56:55.733Z,98074.81
2022-11-09T02:59:23.869Z,98073.56
2022-11-09T03:01:51.993Z,98084.09
2022-11-09T03:04:20.232Z,98083.38
2022-11-09T03:06:48.619Z,98081.41
2022-11-09T03:09:20.800Z,98080.81
2022-11-09T03:11:49.526Z,98084.69
2022-11-09T03:14:17.775Z,98082.22
2022-11-09T03:16:51.162Z,98071.56
2022-11-09T03:19:20.132Z,98091.50
2022-11-09T03:21:51.473Z,98092.34
2022-11-09T03:24:25.215Z,98090.44
2022-11-09T03:26:56.994Z,98090.34
2022-11-09T03:29:25.086Z,98095.56
2022-11-09T03:31:53.368Z,98093.56
2022-11-09T03:34:21.445Z,98096.75
2022-11-09T03:36:49.564Z,98093.56
2022-11-09T03:39:18.161Z,98088.22
2022-11-09T03:41:47.505Z,98088.50
2022-11-09T03:44:15.612Z,98080.22
2022-11-09T03:46:43.548Z,98080.47
2022-11-09T03:49:11.657Z,98082.94
2022-11-09T03:51:41.988Z,98066.78
2022-11-09T03:54:10.078Z,98084.50
2022-11-09T03:56:38.044Z,98083.41
2022-11-09T03:59:07.513Z,98085.03
2022-11-09T04:01:35.517Z,98068.22
2022-11-09T04:04:03.556Z,98086.91
2022-11-09T04:06:31.512Z,98089.44
2022-11-09T04:08:59.556Z,98098.50
2022-11-09T04:11:27.558Z,98095.38
2022-11-09T04:13:55.569Z,98085.13
2022-11-09T04:16:24.952Z,98098.09
2022-11-09T04:18:52.961Z,98102.50
2022-11-09T04:21:23.861Z,98110.16
2022-11-09T04:23:52.166Z,98112.53
2022-11-09T04:26:20.135Z,98120.84
2022-11-09T04:28:48.179Z,98124.75
2022-11-09T04:31:16.195Z,98126.84
2022-11-09T04:33:52.053Z,98132.50
2022-11-09T04:36:22.598Z,98135.53
2022-11-09T04:38:50.614Z,98138.84
2022-11-09T04:41:18.576Z,98132.38
2022-11-09T04:43:48.908Z,98131.44
2022-11-09T04:46:16.909Z,98135.69
2022-11-09T04:48:44.916Z,98134.28
2022-11-09T04:51:14.209Z,98129.56
2022-11-09T04:53:42.252Z,98133.22
2022-11-09T04:56:10.224Z,98130.88
2022-11-09T04:58:38.666Z,98127.94
2022-11-09T05:01:08.374Z,98132.72
2022-11-09T05:03:36.441Z,98129.00
2022-11-09T05:06:25.173Z,98134.25
2022-11-09T05:08:55.706Z,98130.75
2022-11-09T05:11:24.174Z,98139.66
2022-11-09T05:13:52.462Z,98138.16
2022-11-09T05:16:20.968Z,98138.38
2022-11-09T05:18:51.463Z,98139.31
2022-11-09T05:21:19.999Z,98148.00
2022-11-09T05:23:58.886Z,98138.00
2022-11-09T05:26:32.201Z,98137.53
2022-11-09T05:29:00.398Z,98136.25
2022-11-09T05:31:28.622Z,98133.91
2022-11-09T05:33:56.745Z,98142.06
2022-11-09T05:36:24.754Z,98145.06
2022-11-09T05:38:52.729Z,98157.00
2022-11-09T05:41:21.370Z,98155.03
2022-11-09T05:43:51.119Z,98158.94
2022-11-09T05:46:19.637Z,98151.22
2022-11-09T05:48:47.624Z,98137.16
2022-11-09T05:51:16.204Z,98139.50
2022-11-09T05:53:46.670Z,98141.78
2022-11-09T05:56:15.596Z,98130.38
2022-11-09T05:58:43.833Z,98137.09
2022-11-09T06:01:14.213Z,98137.19
2022-11-09T06:03:44.055Z,98143.19
2022-11-09T06:06:13.014Z,98156.22
2022-11-09T06:08:41.131Z,98149.06
2022-11-09T06:11:10.333Z,98155.03
2022-11-09T06:13:38.324Z,98163.84
2022-11-09T06:16:07.024Z,98176.91
2022-11-09T06:18:36.917Z,98182.91
2022-11-09T06:21:06.299Z,98177.72
2022-11-09T06:23:34.490Z,98183.81
2022-11-09T06:26:03.231Z,98180.31
2022-11-09T06:28:31.320Z,98183.00
2022-11-09T06:30:59.607Z,98187.31
2022-11-09T06:33:27.726Z,98186.66
2022-11-09T06:35:57.387Z,98191.19
2022-11-09T06:38:26.356Z,98206.03
2022-11-09T06:40:54.844Z,98232.13
2022-11-09T06:43:23.187Z,98238.81
2022-11-09T06:45:51.666Z,98265.44
2022-11-09T06:48:19.774Z,98302.44
2022-11-09T06:50:47.740Z,98290.81
2022-11-09T06:53:18.675Z,98261.66
2022-11-09T06:55:50.659Z,98277.38
2022-11-09T06:58:19.600Z,98290.38
2022-11-09T07:00:50.371Z,98289.69
2022-11-09T07:03:19.888Z,98283.00
2022-11-09T07:05:48.504Z,98278.75
2022-11-09T07:08:18.348Z,98274.91
2022-11-09T07:10:46.828Z,98265.28
2022-11-09T07:13:15.255Z,98264.19
2022-11-09T07:15:43.233Z,98254.81
2022-11-09T07:18:11.940Z,98264.69
2022-11-09T07:20:39.966Z,98262.56
2022-11-09T07:23:08.019Z,98263.75
2022-11-09T07:25:37.550Z,98263.47
2022-11-09T07:28:07.449Z,98257.88
2022-11-09T07:30:36.514Z,98261.50
2022-11-09T07:33:10.111Z,98262.78
2022-11-09T07:35:38.588Z,98264.09
2022-11-09T07:38:06.589Z,98270.69
2022-11-09T07:40:34.705Z,98279.63
2022-11-09T07:43:04.899Z,98275.38
2022-11-09T07:45:34.028Z,98273.63
2022-11-09T07:48:02.685Z,98279.38
2022-11-09T07:50:31.980Z,98280.06
2022-11-09T07:53:01.155Z,98276.34
2022-11-09T07:55:29.595Z,98263.63
2022-11-09T07:57:57.769Z,98261.25
2022-11-09T08:00:28.123Z,98254.81
2022-11-09T08:02:56.600Z,98256.81
2022-11-09T08:05:24.812Z,98264.34
2022-11-09T08:07:58.223Z,98265.41
2022-11-09T08:10:26.944Z,98234.22
2022-11-09T08:12:55.818Z,98232.78
2022-11-09T08:15:24.202Z,98203.69
2022-11-09T08:17:53.590Z,98224.34
2022-11-09T08:20:22.267Z,98219.56
2022-11-09T08:22:50.275Z,98218.16
2022-11-09T08:25:18.453Z,98207.38
2022-11-09T08:27:47.083Z,98213.06
2022-11-09T08:30:15.844Z,98203.03
2022-11-09T08:32:44.270Z,98184.13
2022-11-09T08:35:17.686Z,98193.97
2022-11-09T08:37:46.764Z,98192.34
2022-11-09T08:40:16.104Z,98198.06
2022-11-09T08:42:44.543Z,98200.56
2022-11-09T08:45:12.894Z,98206.19
2022-11-09T08:47:41.032Z,98205.41
2022-11-09T08:50:10.018Z,98210.03
2022-11-09T08:52:39.516Z,98213.56
2022-11-09T08:55:08.545Z,98219.94
2022-11-09T08:57:38.888Z,98210.25
2022-11-09T09:00:07.561Z,98218.78
2022-11-09T09:02:37.607Z,98221.69
2022-11-09T09:05:06.045Z,98220.69
2022-11-09T09:07:34.018Z,98216.97
2022-11-09T09:10:06.368Z,98209.28
2022-11-09T09:12:34.397Z,98204.88
2022-11-09T09:15:02.369Z,98205.00
2022-11-09T09:17:30.438Z,98210.59
2022-11-09T09:19:58.435Z,98201.84
2022-11-09T09:22:26.468Z,98212.75
2022-11-09T09:24:54.567Z,98220.03
2022-11-09T09:27:23.924Z,98216.13
2022-11-09T09:29:51.939Z,98226.31
2022-11-09T09:32:19.935Z,98225.22
2022-11-09T09:34:47.963Z,98219.03
2022-11-09T09:37:17.228Z,98225.88
2022-11-09T09:39:45.287Z,98232.19
2022-11-09T09:42:16.457Z,98228.31
2022-11-09T09:44:48.345Z,98233.63
2022-11-09T09:47:18.276Z,98245.09
2022-11-09T09:49:47.603Z,98241.59
2022-11-09T09:52:18.569Z,98239.38
2022-11-09T09:54:52.205Z,98233.38
2022-11-09T09:57:21.214Z,98237.03
2022-11-09T09:59:51.720Z,98225.78
2022-11-09T10:02:24.368Z,98216.19
2022-11-09T10:04:53.012Z,98222.84
2022-11-09T10:07:25.513Z,98218.34
2022-11-09T10:10:09.595Z,98207.78
2022-11-09T10:12:42.987Z,98210.00
2022-11-09T10:15:16.741Z,98210.56
2022-11-09T10:17:49.298Z,98209.63
2022-11-09T10:20:30.948Z,98201.56
2022-11-09T10:23:07.688Z,98202.03
2022-11-09T10:25:58.198Z,98199.38
2022-11-09T10:28:34.286Z,98193.00
2022-11-09T10:31:16.452Z,98199.19
2022-11-09T10:33:45.191Z,98190.25
2022-11-09T10:36:18.571Z,98190.03
2022-11-09T10:38:48.974Z,98189.63
2022-11-09T10:41:39.094Z,98180.44
2022-11-09T10:44:25.967Z,98185.41
2022-11-09T10:47:16.625Z,98188.50
2022-11-09T10:50:16.499Z,98175.75
2022-11-09T10:53:10.939Z,98170.31
2022-11-09T10:55:58.118Z,98174.81
2022-11-09T10:58:48.265Z,98166.75
2022-11-09T11:01:37.705Z,98158.22
2022-11-09T11:04:26.706Z,98158.38
2022-11-09T11:07:21.209Z,98154.75
2022-11-09T11:10:12.021Z,98159.75
2022-11-09T11:13:20.553Z,98156.53
2022-11-09T11:16:15.815Z,98151.88
2022-11-09T11:19:03.887Z,98143.78
2022-11-09T11:22:09.406Z,98142.47
2022-11-09T11:24:57.104Z,98140.56
2022-11-09T11:27:46.062Z,98140.56
2022-11-09T11:30:36.150Z,98140.47
2022-11-09T11:33:23.331Z,98140.78
2022-11-09T11:36:17.489Z,98136.19
2022-11-09T11:39:13.397Z,98136.44
2022-11-09T11:42:10.005Z,98131.78
2022-11-09T11:45:33.524Z,98135.13
2022-11-09T11:48:29.007Z,98146.22
2022-11-09T11:51:19.137Z,98137.31
2022-11-09T11:54:14.993Z,98131.41
2022-11-09T11:57:04.963Z,98123.81
2022-11-09T12:00:11.511Z,98129.59
2022-11-09T12:03:07.428Z,98122.78
2022-11-09T12:06:03.497Z,98114.88
2022-11-09T12:09:04.460Z,98108.38
2022-11-09T12:12:00.470Z,98124.09
2022-11-09T12:15:00.822Z,98125.06
2022-11-09T12:17:53.106Z,98111.84
2022-11-09T12:20:44.013Z,98106.44
2022-11-09T12:23:37.722Z,98104.81
2022-11-09T12:26:32.647Z,98111.88
2022-11-09T12:29:23.488Z,98113.22
2022-11-09T12:32:13.773Z,98096.38
2022-11-09T12:35:04.633Z,98109.44
2022-11-09T12:37:54.768Z,98104.28
2022-11-09T12:40:45.571Z,98106.16
2022-11-09T12:43:34.084Z,98105.13
2022-11-09T12:46:24.300Z,98096.41
2022-11-09T12:49:20.185Z,98097.47
2022-11-09T12:52:07.667Z,98106.72
2022-11-09T12:54:54.564Z,98100.19
2022-11-09T12:57:45.785Z,98103.75
2022-11-09T13:00:47.138Z,98109.69
2022-11-09T13:03:35.967Z,98107.53
2022-11-09T13:06:24.512Z,98109.19
2022-11-09T13:09:21.412Z,98112.69
2022-11-09T13:12:18.531Z,98115.44
2022-11-09T13:15:23.021Z,98116.84
2022-11-09T13:18:23.917Z,98110.84
2022-11-09T13:21:29.234Z,98087.94
2022-11-09T13:24:34.176Z,98104.31
2022-11-09T13:27:39.696Z,98112.06
2022-11-09T13:30:50.483Z,98115.47
2022-11-09T13:33:39.557Z,98113.31
2022-11-09T13:36:26.356Z,98117.34
2022-11-09T13:39:30.951Z,98123.63
2022-11-09T13:42:35.790Z,98125.78
2022-11-09T13:45:26.960Z,98132.59
2022-11-09T13:48:25.752Z,98135.88
2022-11-09T13:51:15.739Z,98133.94
2022-11-09T13:54:02.732Z,98137.25
2022-11-09T13:56:49.753Z,98136.16
2022-11-09T13:59:39.936Z,98142.13
2022-11-09T14:02:27.384Z,98137.19
2022-11-09T14:05:24.448Z,98148.81
2022-11-09T14:08:17.807Z,98150.09
2022-11-09T14:11:15.059Z,98143.44
2022-11-09T14:14:12.685Z,98153.94
2022-11-09T14:17:03.189Z,98157.19
2022-11-09T14:19:56.367Z,98165.00
2022-11-09T14:22:43.138Z,98182.50
2022-11-09T14:25:37.277Z,98175.50
2022-11-09T14:28:25.546Z,98176.44
2022-11-09T14:31:22.645Z,98180.03
2022-11-09T14:34:15.455Z,98176.88
2022-11-09T14:37:05.738Z,98189.44
2022-11-09T14:39:53.996Z,98193.75
2022-11-09T14:42:48.750Z,98201.31
2022-11-09T14:45:35.547Z,98212.00
2022-11-09T14:48:24.245Z,98216.88
2022-11-09T14:51:14.746Z,98222.56
2022-11-09T14:54:02.704Z,98226.50
2022-11-09T14:56:49.558Z,98222.66
2022-11-09T14:59:37.491Z,98225.09
2022-11-09T15:02:24.598Z,98224.25
2022-11-09T15:05:26.222Z,98225.31
2022-11-09T15:08:16.006Z,98226.59
2022-11-09T15:11:02.609Z,98230.88
2022-11-09T15:13:49.344Z,98235.00
2022-11-09T15:16:37.480Z,98232.97
2022-11-09T15:19:25.262Z,98241.91
2022-11-09T15:22:26.833Z,98245.25
2022-11-09T15:25:20.973Z,98241.91
2022-11-09T15:28:24.903Z,98233.44
2022-11-09T15:31:15.509Z,98239.94
2022-11-09T15:34:03.415Z,98242.00
2022-11-09T15:36:54.407Z,98249.78
2022-11-09T15:39:41.125Z,98254.22
2022-11-09T15:42:28.363Z,98251.75
2022-11-09T15:45:15.425Z,98250.16
2022-11-09T15:48:02.623Z,98258.56
2022-11-09T15:50:50.713Z,98268.28
2022-11-09T15:53:37.321Z,98261.38
2022-11-09T15:56:25.019Z,98259.38
2022-11-09T15:59:16.336Z,98257.41
2022-11-09T16:02:03.192Z,98263.13
2022-11-09T16:04:49.772Z,98256.75
2022-11-09T16:07:37.930Z,98254.50
2022-11-09T16:10:27.054Z,98257.69
2022-11-09T16:13:14.303Z,98258.88
2022-11-09T16:16:05.885Z,98258.78
2022-11-09T16:18:52.734Z,98257.56
2022-11-09T16:21:39.359Z,98255.09
2022-11-09T16:24:27.503Z,98264.78
2022-11-09T16:27:42.953Z,98264.78
2022-11-09T16:30:21.924Z,98267.28
2022-11-09T16:33:08.780Z,98273.75
2022-11-09T16:35:56.528Z,98274.91
2022-11-09T16:38:45.186Z,98283.19
2022-11-09T16:41:33.487Z,98284.81
2022-11-09T16:44:24.769Z,98286.47
2022-11-09T16:47:14.206Z,98292.59
2022-11-09T16:50:00.953Z,98302.50
2022-11-09T16:52:47.688Z,98308.47
2022-11-09T16:55:35.233Z,98319.59
2022-11-09T16:58:24.076Z,98316.53
2022-11-09T17:01:12.931Z,98329.06
2022-11-09T17:04:00.951Z,98341.41
2022-11-09T17:06:48.195Z,98341.22
2022-11-09T17:09:35.409Z,98356.84
2022-11-09T17:12:22.213Z,98352.50
2022-11-09T17:15:11.547Z,98365.72
2022-11-09T17:17:58.238Z,98380.25
2022-11-09T17:20:45.920Z,98400.28
2022-11-09T17:23:33.802Z,98377.41
2022-11-09T17:26:21.105Z,98395.06
2022-11-09T17:29:07.796Z,98403.88
2022-11-09T17:31:55.995Z,98385.69
2022-11-09T17:34:42.751Z,98404.91
2022-11-09T17:37:29.368Z,98408.06
2022-11-09T17:40:17.168Z,98409.06
2022-11-09T17:43:03.816Z,98408.41
2022-11-09T17:45:50.439Z,98406.31
2022-11-09T17:48:39.108Z,98410.25
2022-11-09T17:51:26.128Z,98417.09
2022-11-09T17:54:14.586Z,98417.78
2022-11-09T17:57:02.406Z,98421.31
2022-11-09T17:59:48.827Z,98418.38
2022-11-09T18:02:36.043Z,98418.50
2022-11-09T18:05:23.961Z,98424.25
2022-11-09T18:08:11.505Z,98426.97
2022-11-09T18:10:58.915Z,98422.63
2022-11-09T18:13:46.051Z,98435.69
2022-11-09T18:16:32.684Z,98426.91
2022-11-09T18:19:19.279Z,98428.16
2022-11-09T18:22:12.519Z,98428.56
2022-11-09T18:24:59.380Z,98431.47
2022-11-09T18:27:47.217Z,98431.97
2022-11-09T18:30:33.710Z,98444.13
2022-11-09T18:33:20.728Z,98421.97
2022-11-09T18:36:08.978Z,98444.97
2022-11-09T18:38:57.534Z,98447.47
2022-11-09T18:41:44.334Z,98453.47
2022-11-09T18:44:31.232Z,98464.03
2022-11-09T18:47:18.077Z,98463.44
2022-11-09T18:50:05.584Z,98465.56
2022-11-09T18:52:52.233Z,98450.59
2022-11-09T18:55:40.559Z,98477.19
2022-11-09T18:58:27.057Z,98478.47
2022-11-09T19:01:14.203Z,98479.06
2022-11-09T19:04:01.873Z,98475.19
2022-11-09T19:06:48.689Z,98486.50
2022-11-09T19:09:38.779Z,98491.84
2022-11-09T19:12:26.733Z,98499.00
2022-11-09T19:15:14.039Z,98509.84
2022-11-09T19:18:00.765Z,98504.41
2022-11-09T19:20:47.773Z,98508.69
2022-11-09T19:23:35.041Z,98514.06
2022-11-09T19:26:21.766Z,98515.59
2022-11-09T19:29:10.077Z,98520.22
2022-11-09T19:31:56.800Z,98511.50
2022-11-09T19:34:43.626Z,98521.28
2022-11-09T19:37:30.238Z,98520.91
2022-11-09T19:40:17.331Z,98516.41
2022-11-09T19:43:04.071Z,98524.34
2022-11-09T19:45:52.324Z,98537.75
2022-11-09T19:48:38.799Z,98549.69
2022-11-09T19:51:25.890Z,98559.00
2022-11-09T19:54:13.231Z,98557.13
2022-11-09T19:56:59.957Z,98559.44
2022-11-09T19:59:46.765Z,98559.16
2022-11-09T20:02:34.973Z,98548.75
2022-11-09T20:05:21.413Z,98553.31
2022-11-09T20:08:08.118Z,98552.53
2022-11-09T20:10:55.095Z,98542.34
2022-11-09T20:13:42.036Z,98562.91
2022-11-09T20:16:28.789Z,98569.97
2022-11-09T20:19:16.742Z,98578.66
2022-11-09T20:22:03.178Z,98585.13
2022-11-09T20:24:50.008Z,98583.25
2022-11-09T20:27:36.941Z,98601.72
2022-11-09T20:30:23.799Z,98596.66
2022-11-09T20:33:10.700Z,98602.53
2022-11-09T20:35:59.030Z,98608.22
2022-11-09T20:38:46.599Z,98612.22
2022-11-09T20:41:33.445Z,98613.28
2022-11-09T20:44:19.963Z,98613.97
2022-11-09T20:47:06.751Z,98623.88
2022-11-09T20:49:53.145Z,98616.91
2022-11-09T20:52:41.587Z,98626.31
2022-11-09T20:55:28.274Z,98634.41
2022-11-09T20:58:15.125Z,98637.78
2022-11-09T21:01:03.065Z,98637.50
2022-11-09T21:03:50.958Z,98640.53
2022-11-09T21:06:37.516Z,98636.97
2022-11-09T21:09:25.471Z,98640.25
2022-11-09T21:12:25.497Z,98641.31
2022-11-09T21:15:14.027Z,98649.94
2022-11-09T21:18:00.574Z,98650.19
2022-11-09T21:20:49.875Z,98651.50
2022-11-09T21:23:57.342Z,98662.59
2022-11-09T21:27:03.331Z,98658.59
2022-11-09T21:29:52.846Z,98661.50
2022-11-09T21:32:39.808Z,98666.31
2022-11-09T21:35:26.735Z,98666.34
2022-11-09T21:38:13.793Z,98676.69
2022-11-09T21:41:05.401Z,98676.50
2022-11-09T21:43:56.157Z,98682.69
2022-11-09T21:46:43.873Z,98686.09
2022-11-09T21:49:31.154Z,98686.13
2022-11-09T21:52:17.843Z,98683.59
2022-11-09T21:55:04.761Z,98682.81
2022-11-09T21:57:51.225Z,98691.44
2022-11-09T22:02:41.914Z,98686.03
2022-11-09T22:05:28.408Z,98687.47
2022-11-09T22:08:14.812Z,98690.09
2022-11-09T22:11:05.905Z,98687.88
2022-11-09T22:14:10.139Z,98693.97
2022-11-09T22:16:56.973Z,98689.63
2022-11-09T22:20:02.571Z,98693.19
2022-11-09T22:22:49.351Z,98703.88
2022-11-09T22:25:36.087Z,98702.09
2022-11-09T22:28:22.751Z,98715.22
2022-11-09T22:31:10.043Z,98718.97
2022-11-09T22:33:56.402Z,98725.31
2022-11-09T22:36:44.443Z,98729.28
2022-11-09T22:39:31.105Z,98728.34
2022-11-09T22:42:17.753Z,98724.03
2022-11-09T22:45:04.830Z,98733.88
2022-11-09T22:47:51.104Z,98738.84
2022-11-09T22:50:38.183Z,98753.34
2022-11-09T22:53:26.356Z,98755.97
2022-11-09T22:56:12.918Z,98758.00
2022-11-09T22:58:59.589Z,98763.00
2022-11-09T23:01:46.462Z,98779.78
2022-11-09T23:04:33.007Z,98778.78
2022-11-09T23:07:19.703Z,98787.72
2022-11-09T23:10:10.162Z,98792.81
2022-11-09T23:12:58.277Z,98790.88
2022-11-09T23:15:44.707Z,98784.78
2022-11-09T23:18:48.999Z,98774.50
2022-11-09T23:21:36.752Z,98789.81
2022-11-09T23:24:37.451Z,98802.59
2022-11-09T23:27:25.243Z,98803.09
2022-11-09T23:30:12.598Z,98802.53
2022-11-09T23:33:00.739Z,98800.44
2022-11-09T23:35:47.040Z,98791.34
2022-11-09T23:38:34.064Z,98803.13
2022-11-09T23:41:20.739Z,98803.66
2022-11-09T23:44:08.565Z,98806.75
2022-11-09T23:46:55.075Z,98815.78
2022-11-09T23:49:41.868Z,98811.16
2022-11-09T23:52:28.561Z,98817.03
2022-11-09T23:55:15.263Z,98825.47
2022-11-09T23:58:02.180Z,98830.25
